Time;durP1;ratioP1;P1;durP2;ratioP2;P2;SDS_P1;SDS_P2;PMS_P1;PMS_P2;Temp;Humidity;BMP_temperature;BMP_pressure;BME280_temperature;BME280_humidity;BME280_pressure;Samples;Min_cycle;Max_cycle;Signal;HPM_P1;HPM_P2
2021/09/14 00:00:42;;;;;;;18.80;10.75;;;;;;;19.51;53.11;99820.44;5066565;28;20312;-77
2021/09/14 00:03:08;;;;;;;19.90;11.50;;;;;;;19.57;52.91;99827.66;5081841;28;20036;-77
2021/09/14 00:05:33;;;;;;;19.95;11.50;;;;;;;19.45;52.66;99795.28;5072826;28;20035;-78
2021/09/14 00:07:59;;;;;;;18.17;10.60;;;;;;;19.54;52.80;99825.41;5089030;28;20032;-77
2021/09/14 00:10:24;;;;;;;17.35;11.25;;;;;;;19.22;53.60;99818.38;5103546;28;20042;-77
2021/09/14 00:12:50;;;;;;;17.92;11.23;;;;;;;19.14;53.87;99820.28;5088921;28;20036;-77
2021/09/14 00:15:15;;;;;;;15.38;10.10;;;;;;;19.07;53.87;99799.88;5066643;28;20430;-77
2021/09/14 00:17:41;;;;;;;19.10;10.07;;;;;;;19.27;53.27;99814.00;5082014;28;20036;-77
2021/09/14 00:20:07;;;;;;;14.35;9.50;;;;;;;19.37;52.92;99811.66;5096408;28;20034;-77
2021/09/14 00:22:33;;;;;;;20.88;8.88;;;;;;;19.38;52.61;99815.97;5102963;28;20043;-78
2021/09/14 00:24:58;;;;;;;16.20;9.38;;;;;;;19.18;53.23;99806.41;5101414;28;20058;-77
2021/09/14 00:27:24;;;;;;;13.00;9.27;;;;;;;19.41;53.26;99826.28;5102036;28;20353;-77
2021/09/14 00:29:49;;;;;;;13.68;9.57;;;;;;;19.37;53.12;99825.06;5065772;28;20040;-77
2021/09/14 00:32:15;;;;;;;13.00;9.50;;;;;;;19.28;53.52;99829.06;5081280;28;20028;-77
2021/09/14 00:34:40;;;;;;;14.82;9.32;;;;;;;19.24;53.36;99814.44;5098935;28;20031;-77
2021/09/14 00:37:06;;;;;;;17.80;9.57;;;;;;;19.31;53.50;99820.56;5102738;28;20043;-77
2021/09/14 00:39:31;;;;;;;17.70;9.70;;;;;;;19.07;53.75;99789.97;5083240;28;20103;-77
2021/09/14 00:41:57;;;;;;;12.68;9.48;;;;;;;19.13;53.97;99825.84;5083866;28;20036;-77
2021/09/14 00:44:23;;;;;;;14.48;9.70;;;;;;;19.26;53.70;99822.25;5101928;28;20031;-77
2021/09/14 00:46:48;;;;;;;18.77;9.55;;;;;;;19.12;53.81;99821.53;5083965;28;20039;-77
2021/09/14 00:49:15;;;;;;;16.58;9.90;;;;;;;19.00;54.52;99820.56;5083685;28;20055;-77
2021/09/14 00:51:41;;;;;;;15.52;10.07;;;;;;;18.82;54.63;99815.91;5083919;28;20099;-77
2021/09/14 00:54:15;;;;;;;16.85;9.40;;;;;;;18.80;54.21;99809.94;5083708;28;20268;-77
2021/09/14 00:56:42;;;;;;;16.80;9.65;;;;;;;18.77;54.43;99837.19;5064074;28;20104;-77
2021/09/14 00:59:08;;;;;;;19.98;9.88;;;;;;;18.70;54.21;99810.34;5082467;28;20043;-77
2021/09/14 01:01:34;;;;;;;18.10;9.68;;;;;;;18.78;54.05;99831.59;5064645;28;20389;-77
2021/09/14 01:03:59;;;;;;;14.45;9.27;;;;;;;18.74;54.18;99821.53;5081725;28;20039;-77
2021/09/14 01:06:25;;;;;;;17.95;9.65;;;;;;;18.82;54.14;99837.38;5082951;28;20095;-77
2021/09/14 01:08:51;;;;;;;15.88;9.82;;;;;;;18.69;54.09;99835.53;5089513;28;20031;-77
2021/09/14 01:11:17;;;;;;;17.67;9.45;;;;;;;18.58;54.71;99838.03;5065565;28;20099;-77
2021/09/14 01:13:43;;;;;;;14.02;9.90;;;;;;;18.39;55.44;99824.47;5081425;28;20039;-77
2021/09/14 01:16:13;;;;;;;15.38;10.13;;;;;;;18.35;55.54;99830.47;5092375;28;20107;-77
2021/09/14 01:18:39;;;;;;;15.57;10.38;;;;;;;18.34;55.60;99821.59;5101117;28;20035;-77
2021/09/14 01:21:06;;;;;;;19.50;9.60;;;;;;;18.40;55.49;99810.03;5101440;28;20389;-77
2021/09/14 01:23:31;;;;;;;15.93;9.55;;;;;;;18.54;55.23;99834.94;5094084;28;20028;-78
2021/09/14 01:25:56;;;;;;;19.27;9.55;;;;;;;18.42;54.90;99812.50;5082085;28;20027;-77
2021/09/14 01:28:22;;;;;;;19.10;9.50;;;;;;;18.55;54.72;99833.09;5082015;28;20020;-77
2021/09/14 01:30:47;;;;;;;13.50;9.70;;;;;;;18.38;55.31;99830.03;5082276;28;20252;-77
2021/09/14 01:33:15;;;;;;;21.70;10.57;;;;;;;18.46;55.01;99827.94;5099282;28;20333;-77
2021/09/14 01:35:41;;;;;;;19.90;9.80;;;;;;;18.46;55.15;99837.84;5082280;28;20028;-77
2021/09/14 01:38:07;;;;;;;13.75;9.10;;;;;;;18.34;54.90;99839.53;5083960;28;20047;-77
2021/09/14 01:40:33;;;;;;;19.48;9.68;;;;;;;18.29;55.51;99832.13;5101634;28;20466;-77
2021/09/14 01:42:58;;;;;;;17.38;9.88;;;;;;;18.07;55.86;99828.88;5079385;28;20048;-77
2021/09/14 01:45:24;;;;;;;18.50;9.95;;;;;;;18.01;56.07;99816.31;5081861;28;20039;-77
2021/09/14 01:47:49;;;;;;;15.13;9.27;;;;;;;17.90;56.41;99805.41;5081650;28;20039;-77
2021/09/14 01:50:16;;;;;;;15.85;8.93;;;;;;;17.97;56.07;99812.41;5101549;28;20047;-77
2021/09/14 01:52:43;;;;;;;17.77;9.93;;;;;;;17.97;56.32;99814.25;5100961;28;20370;-77
2021/09/14 01:55:11;;;;;;;15.95;10.00;;;;;;;18.05;55.90;99822.91;5100937;28;20032;-77
2021/09/14 01:57:40;;;;;;;15.52;10.27;;;;;;;17.91;55.89;99793.66;5083446;28;20047;-77
2021/09/14 02:00:11;;;;;;;14.85;9.23;;;;;;;18.06;55.90;99819.19;5091466;28;20082;-77
2021/09/14 02:05:15;;;;;;;17.65;9.55;;;;;;;17.99;55.64;99804.16;5082633;28;20021;-77
2021/09/14 02:08:41;;;;;;;16.13;8.60;;;;;;;17.78;55.77;99802.53;5081437;28;20043;-77
2021/09/14 02:58:37;;;;;;;19.45;9.65;;;;;;;17.75;55.23;99829.72;5095421;28;20040;-77
2021/09/14 02:59:30;;;;;;;18.17;8.30;;;;;;;17.77;54.98;99822.31;5103247;28;20040;-77
2021/09/14 03:01:55;;;;;;;17.33;9.02;;;;;;;17.75;55.09;99813.66;5104333;28;20055;-77
2021/09/14 03:04:21;;;;;;;15.15;8.63;;;;;;;17.89;54.71;99826.00;5102951;28;20329;-77
2021/09/14 03:06:46;;;;;;;18.13;8.90;;;;;;;17.66;54.98;99812.16;5102810;28;20039;-77
2021/09/14 03:09:12;;;;;;;17.67;9.15;;;;;;;17.89;54.60;99823.31;5104040;28;20091;-77
2021/09/14 03:11:37;;;;;;;13.13;8.95;;;;;;;17.95;54.36;99840.44;5069731;28;20036;-77
2021/09/14 03:14:02;;;;;;;20.90;8.63;;;;;;;17.77;54.96;99833.03;5085767;28;20050;-77
2021/09/14 03:16:28;;;;;;;15.18;8.25;;;;;;;17.75;54.74;99843.94;5083055;28;20040;-77
2021/09/14 03:18:53;;;;;;;11.30;8.32;;;;;;;17.75;54.92;99840.44;5083586;28;20024;-77
2021/09/14 03:21:19;;;;;;;16.60;9.07;;;;;;;17.72;54.58;99824.78;5082757;28;20077;-77
2021/09/14 03:23:44;;;;;;;20.20;8.75;;;;;;;17.65;55.13;99840.78;5092734;28;20039;-77
2021/09/14 03:26:10;;;;;;;13.15;8.73;;;;;;;17.38;55.18;99823.88;5104360;28;20048;-77
2021/09/14 03:28:36;;;;;;;18.70;9.30;;;;;;;17.34;55.53;99824.50;5096624;28;20029;-77
2021/09/14 03:31:04;;;;;;;21.17;9.68;;;;;;;17.42;55.90;99835.81;5084699;28;20357;-77
2021/09/14 03:33:29;;;;;;;17.75;8.85;;;;;;;17.60;55.45;99845.09;5087729;28;20023;-77
2021/09/14 03:35:55;;;;;;;15.35;9.23;;;;;;;17.46;55.45;99852.31;5103975;28;20042;-77
2021/09/14 03:38:21;;;;;;;19.90;8.60;;;;;;;17.44;55.64;99851.69;5102219;28;20359;-77
2021/09/14 03:40:47;;;;;;;16.95;8.63;;;;;;;17.40;55.46;99839.72;5085446;28;20210;-77
2021/09/14 03:43:13;;;;;;;18.88;8.90;;;;;;;17.50;55.35;99857.03;5102053;28;20081;-77
2021/09/14 03:45:47;;;;;;;15.07;8.63;;;;;;;17.30;55.76;99845.47;5083686;28;20029;-77
2021/09/14 03:48:14;;;;;;;17.13;7.78;;;;;;;17.32;55.88;99838.06;5082199;28;20265;-77
2021/09/14 03:50:40;;;;;;;17.90;8.10;;;;;;;17.58;54.98;99858.69;5085260;28;20036;-77
2021/09/14 03:53:05;;;;;;;14.68;8.15;;;;;;;17.61;55.00;99860.13;5099853;28;20031;-77
2021/09/14 03:55:31;;;;;;;15.07;8.40;;;;;;;17.28;55.20;99849.38;5102304;28;20035;-77
2021/09/14 03:57:56;;;;;;;26.05;9.15;;;;;;;17.38;55.77;99866.69;5102922;28;20039;-77
2021/09/14 04:00:22;;;;;;;17.85;8.10;;;;;;;17.45;55.73;99864.88;5091857;28;20076;-77
2021/09/14 04:02:54;;;;;;;12.30;7.72;;;;;;;17.41;55.09;99842.19;5083019;28;20041;-77
2021/09/14 04:10:31;;;;;;;17.42;8.40;;;;;;;17.73;54.10;99863.91;5103149;28;20032;-77
2021/09/14 04:12:56;;;;;;;18.10;8.43;;;;;;;17.81;53.48;99855.69;5102100;28;20290;-77
2021/09/14 04:15:21;;;;;;;13.93;8.77;;;;;;;17.99;53.47;99869.28;5090696;28;20031;-77
2021/09/14 04:17:47;;;;;;;15.32;8.10;;;;;;;18.15;53.23;99884.09;5084279;28;20036;-77
2021/09/14 04:20:13;;;;;;;21.80;8.02;;;;;;;18.06;53.43;99869.28;5082139;28;20020;-77
2021/09/14 04:22:38;;;;;;;23.88;9.75;;;;;;;18.18;53.65;99889.88;5101622;28;20036;-77
2021/09/14 04:25:04;;;;;;;27.05;9.90;;;;;;;18.09;53.73;99879.56;5100421;28;20020;-77
2021/09/14 04:27:29;;;;;;;21.30;9.57;;;;;;;18.16;53.45;99893.78;5102126;28;20099;-77
2021/09/14 04:29:55;;;;;;;31.35;9.68;;;;;;;17.97;53.58;99879.38;5084612;28;20043;-77
2021/09/14 04:32:20;;;;;;;24.10;9.50;;;;;;;17.94;54.04;99898.53;5100932;28;20459;-77
2021/09/14 04:34:45;;;;;;;59.30;18.35;;;;;;;17.85;54.11;99897.09;5102839;28;20032;-77
2021/09/14 04:37:11;;;;;;;27.40;13.68;;;;;;;17.79;54.27;99885.34;5102108;28;20091;-77
2021/09/14 04:39:36;;;;;;;26.30;9.60;;;;;;;18.02;53.97;99903.69;5101292;28;20028;-77
2021/09/14 04:42:02;;;;;;;30.35;9.60;;;;;;;17.95;54.37;99899.38;5091639;28;20096;-77
2021/09/14 04:44:27;;;;;;;30.00;9.65;;;;;;;17.98;54.52;99899.78;5083555;28;20032;-78
2021/09/14 04:46:53;;;;;;;28.60;9.75;;;;;;;18.17;53.61;99904.31;5101850;28;20054;-78
2021/09/14 04:49:18;;;;;;;21.80;9.05;;;;;;;18.34;53.25;99903.88;5092835;28;20024;-77
2021/09/14 04:51:44;;;;;;;18.80;8.75;;;;;;;18.38;52.93;99903.25;5080857;28;20037;-77
2021/09/14 04:54:09;;;;;;;18.98;8.80;;;;;;;18.28;52.92;99899.34;5089392;28;20036;-77
2021/09/14 04:56:34;;;;;;;21.48;8.88;;;;;;;18.30;53.34;99910.69;5102932;28;20134;-77
2021/09/14 04:59:00;;;;;;;19.35;8.70;;;;;;;18.35;53.22;99910.88;5083324;28;20024;-77
2021/09/14 05:01:25;;;;;;;19.65;8.38;;;;;;;18.53;52.63;99913.75;5085069;28;20040;-77
2021/09/14 05:03:51;;;;;;;15.75;8.32;;;;;;;18.54;52.28;99914.56;5081318;28;20036;-77
2021/09/14 05:06:16;;;;;;;19.67;8.68;;;;;;;18.62;52.17;99928.59;5081820;28;20322;-77
2021/09/14 05:08:42;;;;;;;18.13;8.98;;;;;;;18.59;52.63;99931.66;5081894;28;20020;-77
2021/09/14 05:11:07;;;;;;;18.23;8.43;;;;;;;18.63;51.75;99907.97;5082981;28;20056;-77
2021/09/14 05:13:34;;;;;;;19.27;8.63;;;;;;;18.58;51.91;99916.63;5083485;28;20309;-77
2021/09/14 05:15:59;;;;;;;16.17;7.40;;;;;;;18.83;51.54;99932.91;5093415;28;20024;-77
2021/09/14 05:18:26;;;;;;;16.95;8.02;;;;;;;18.91;51.36;99938.03;5101854;28;20332;-77
2021/09/14 05:20:52;;;;;;;20.50;8.95;;;;;;;19.05;51.02;99938.81;5100016;28;20020;-77
2021/09/14 05:23:30;;;;;;;20.58;8.55;;;;;;;19.16;50.85;99940.03;5084708;28;20042;-77
2021/09/14 05:25:57;;;;;;;23.60;9.52;;;;;;;19.37;49.38;99940.53;5100047;28;20016;-78
2021/09/14 05:28:24;;;;;;;26.85;8.65;;;;;;;19.55;49.35;99944.41;5102553;28;20023;-78
2021/09/14 05:30:49;;;;;;;20.63;8.40;;;;;;;19.74;49.02;99954.19;5100493;28;20044;-78
2021/09/14 05:33:15;;;;;;;24.05;8.82;;;;;;;19.99;48.62;99938.13;5097119;28;20081;-77
2021/09/14 05:35:45;;;;;;;18.65;8.60;;;;;;;20.17;48.55;99937.38;5082281;28;20029;-78
2021/09/14 05:38:12;;;;;;;15.45;8.93;;;;;;;20.14;48.62;99922.50;5081561;28;20065;-78
2021/09/14 05:40:38;;;;;;;21.60;8.25;;;;;;;20.42;48.13;99940.09;5086318;28;20230;-78
2021/09/14 05:43:06;;;;;;;19.85;8.70;;;;;;;20.64;47.54;99935.94;5081661;28;20092;-78
2021/09/14 05:45:32;;;;;;;14.77;7.72;;;;;;;20.88;46.74;99932.38;5083425;28;20349;-78
2021/09/14 05:47:58;;;;;;;12.60;7.82;;;;;;;21.03;46.02;99945.47;5100443;28;20048;-78
2021/09/14 05:50:24;;;;;;;16.67;7.72;;;;;;;21.22;45.47;99948.97;5082784;28;20023;-78
2021/09/14 05:52:49;;;;;;;18.65;8.43;;;;;;;21.35;45.80;99946.94;5102510;28;20091;-78
2021/09/14 05:55:15;;;;;;;16.50;8.13;;;;;;;21.45;45.15;99918.66;5105186;28;20101;-78
2021/09/14 05:57:41;;;;;;;22.33;8.65;;;;;;;21.59;45.19;99949.75;5105712;28;20081;-78
2021/09/14 06:00:07;;;;;;;11.68;8.05;;;;;;;21.79;44.57;99944.88;5104336;28;20028;-77
2021/09/14 06:02:33;;;;;;;19.00;7.97;;;;;;;22.17;44.46;99946.44;5105996;28;20040;-77
2021/09/14 06:04:58;;;;;;;16.25;8.40;;;;;;;22.55;43.56;99949.50;5089702;28;20029;-77
2021/09/14 06:07:24;;;;;;;22.20;8.35;;;;;;;22.99;42.82;99949.16;5091834;28;20035;-77
2021/09/14 06:09:49;;;;;;;20.58;7.82;;;;;;;23.25;41.92;99941.31;5105837;28;20028;-77
2021/09/14 06:12:15;;;;;;;15.35;7.55;;;;;;;23.48;41.48;99951.22;5090747;28;20039;-77
2021/09/14 06:14:40;;;;;;;11.70;7.55;;;;;;;23.08;41.68;99948.53;5088555;28;20037;-77
2021/09/14 06:17:06;;;;;;;17.05;8.07;;;;;;;23.35;41.43;99945.28;5093996;28;20102;-77
2021/09/14 06:19:31;;;;;;;19.90;8.00;;;;;;;23.87;40.47;99960.34;5105477;28;20095;-77
2021/09/14 06:21:57;;;;;;;17.55;7.50;;;;;;;24.15;39.64;99953.28;5103519;28;20089;-76
2021/09/14 06:24:22;;;;;;;13.77;6.90;;;;;;;24.25;39.40;99948.03;5086448;28;20030;-78
2021/09/14 06:26:48;;;;;;;15.25;7.50;;;;;;;24.39;39.13;99952.06;5086433;28;20048;-77
2021/09/14 06:29:13;;;;;;;13.70;7.90;;;;;;;24.55;38.89;99938.75;5080156;28;20119;-77
2021/09/14 06:31:39;;;;;;;23.10;8.05;;;;;;;24.68;38.98;99957.34;5084944;28;20267;-77
2021/09/14 06:34:04;;;;;;;19.33;7.40;;;;;;;24.75;38.67;99953.41;5102044;28;20031;-78
2021/09/14 06:36:30;;;;;;;14.57;7.30;;;;;;;24.86;38.55;99953.53;5101226;28;20031;-78
2021/09/14 06:38:55;;;;;;;11.52;7.03;;;;;;;25.03;38.35;99944.34;5101746;28;20043;-78
2021/09/14 06:41:22;;;;;;;14.52;7.40;;;;;;;25.30;37.96;99949.81;5101823;28;20077;-78
2021/09/14 06:43:48;;;;;;;16.85;7.13;;;;;;;25.73;37.20;99948.13;5084944;28;20213;-78
2021/09/14 06:46:13;;;;;;;16.05;7.22;;;;;;;26.13;36.24;99957.75;5083892;28;20028;-78
2021/09/14 06:48:39;;;;;;;16.98;7.45;;;;;;;26.30;35.73;99937.53;5102215;28;20243;-78
2021/09/14 06:51:04;;;;;;;15.32;7.30;;;;;;;26.45;35.00;99944.19;5101906;28;20028;-78
2021/09/14 06:53:31;;;;;;;17.15;7.05;;;;;;;26.51;35.05;99938.50;5102201;28;20024;-78
2021/09/14 06:55:56;;;;;;;13.98;6.93;;;;;;;26.63;34.94;99949.19;5101504;28;20034;-78
2021/09/14 06:58:22;;;;;;;13.77;6.70;;;;;;;26.91;34.72;99956.94;5085009;28;20274;-76
2021/09/14 07:00:48;;;;;;;16.40;6.78;;;;;;;26.89;35.08;99952.84;5084436;28;20016;-76
2021/09/14 07:03:13;;;;;;;12.88;6.78;;;;;;;27.12;34.33;99957.09;5101952;28;20047;-77
2021/09/14 07:05:45;;;;;;;13.40;6.65;;;;;;;27.15;34.19;99949.22;5104479;28;20024;-77
2021/09/14 07:08:13;;;;;;;17.25;6.63;;;;;;;27.29;33.39;99950.38;5087385;28;20481;-77
2021/09/14 07:10:38;;;;;;;13.45;6.97;;;;;;;27.29;32.82;99952.28;5101713;28;20098;-77
2021/09/14 07:13:04;;;;;;;15.48;6.95;;;;;;;27.28;33.60;99945.19;5102439;28;20051;-77
2021/09/14 07:15:29;;;;;;;12.95;6.22;;;;;;;27.52;32.20;99945.53;5102671;28;20028;-77
2021/09/14 07:17:55;;;;;;;11.55;6.57;;;;;;;27.43;32.46;99949.88;5100857;28;20067;-77
2021/09/14 07:20:20;;;;;;;15.65;6.82;;;;;;;27.61;31.60;99954.84;5084838;28;20043;-77
2021/09/14 07:22:46;;;;;;;21.27;7.30;;;;;;;27.83;31.16;99957.31;5083986;28;20027;-77
2021/09/14 07:25:12;;;;;;;12.05;6.88;;;;;;;28.28;30.67;99949.22;5102272;28;20221;-77
2021/09/14 07:27:37;;;;;;;12.40;6.75;;;;;;;28.52;30.51;99949.47;5101187;28;20039;-77
2021/09/14 07:30:03;;;;;;;10.85;6.60;;;;;;;28.72;29.66;99945.88;5100848;28;20048;-77
2021/09/14 07:32:29;;;;;;;11.73;6.50;;;;;;;28.62;28.71;99940.44;5085060;28;20028;-77
2021/09/14 07:34:54;;;;;;;13.82;6.53;;;;;;;28.52;29.02;99941.28;5103108;28;20062;-77
2021/09/14 07:37:20;;;;;;;11.88;6.40;;;;;;;28.81;29.13;99941.47;5085936;28;20382;-77
2021/09/14 07:39:45;;;;;;;15.30;6.78;;;;;;;28.57;28.69;99932.28;5084773;28;20035;-76
2021/09/14 07:42:11;;;;;;;14.15;6.70;;;;;;;28.73;28.86;99944.78;5103268;28;20209;-77
2021/09/14 07:44:36;;;;;;;12.05;6.47;;;;;;;28.95;28.73;99930.84;5102691;28;20210;-77
2021/09/14 07:47:02;;;;;;;20.50;7.43;;;;;;;29.31;28.40;99936.97;5102828;28;20024;-77
2021/09/14 07:49:27;;;;;;;18.15;7.13;;;;;;;29.63;27.78;99943.91;5102988;28;20043;-77
2021/09/14 07:51:53;;;;;;;17.15;6.43;;;;;;;29.58;27.44;99936.56;5102542;28;20274;-77
2021/09/14 07:54:18;;;;;;;12.48;6.35;;;;;;;29.87;26.82;99945.66;5084888;28;20051;-77
2021/09/14 07:56:44;;;;;;;13.35;5.90;;;;;;;29.71;26.89;99941.41;5084498;28;20028;-78
2021/09/14 07:59:09;;;;;;;14.57;6.30;;;;;;;29.96;26.74;99945.84;5102976;28;20050;-78
2021/09/14 08:01:35;;;;;;;10.30;6.22;;;;;;;30.08;26.86;99931.88;5101959;28;20032;-78
2021/09/14 08:04:00;;;;;;;14.07;6.32;;;;;;;29.99;26.79;99930.81;5084483;28;20032;-79
2021/09/14 08:06:26;;;;;;;13.68;6.15;;;;;;;29.94;26.83;99939.03;5102590;28;20032;-77
2021/09/14 08:08:52;;;;;;;13.75;5.95;;;;;;;29.90;26.36;99938.81;5102279;28;20039;-77
2021/09/14 08:11:17;;;;;;;13.93;5.90;;;;;;;29.78;25.85;99933.69;5102338;28;20225;-77
2021/09/14 08:13:45;;;;;;;12.45;5.90;;;;;;;29.78;26.87;99936.44;5084187;28;20028;-77
2021/09/14 08:16:10;;;;;;;12.82;5.38;;;;;;;29.99;25.77;99931.63;5082736;28;20024;-79
2021/09/14 08:18:36;;;;;;;13.40;6.05;;;;;;;30.25;25.37;99948.66;5102411;28;20035;-77
2021/09/14 08:21:02;;;;;;;10.82;5.57;;;;;;;30.18;25.12;99915.41;5083946;28;20016;-77
2021/09/14 08:23:27;;;;;;;10.25;5.90;;;;;;;30.42;24.80;99924.47;5102357;28;20989;-77
2021/09/14 08:25:53;;;;;;;9.93;5.88;;;;;;;30.66;24.89;99923.69;5083747;28;20028;-78
2021/09/14 08:28:18;;;;;;;19.60;6.43;;;;;;;30.81;24.67;99929.00;5100760;28;20035;-77
2021/09/14 08:30:44;;;;;;;12.40;6.28;;;;;;;30.73;24.64;99921.44;5101819;28;20251;-77
2021/09/14 08:33:09;;;;;;;13.27;5.95;;;;;;;30.50;24.21;99891.03;5102383;28;20051;-78
2021/09/14 08:35:35;;;;;;;12.38;6.22;;;;;;;30.63;24.98;99925.09;5101712;28;20032;-78
2021/09/14 08:38:02;;;;;;;13.20;5.60;;;;;;;30.97;24.74;99916.78;5101942;28;20044;-78
2021/09/14 08:40:28;;;;;;;10.02;5.55;;;;;;;31.00;23.77;99915.38;5102164;28;20088;-78
2021/09/14 08:42:56;;;;;;;12.35;6.07;;;;;;;31.04;24.75;99913.69;5101713;28;20046;-78
2021/09/14 08:45:22;;;;;;;11.20;6.00;;;;;;;30.93;24.31;99907.53;5101683;28;20040;-78
2021/09/14 08:47:47;;;;;;;10.55;5.63;;;;;;;30.85;23.96;99902.69;5083431;28;20332;-78
2021/09/14 08:50:13;;;;;;;11.68;5.85;;;;;;;31.01;24.45;99906.06;5101890;28;20313;-78
2021/09/14 08:52:38;;;;;;;9.38;5.20;;;;;;;31.12;23.61;99902.09;5083341;28;20024;-78
2021/09/14 08:55:05;;;;;;;8.38;5.20;;;;;;;31.05;23.33;99896.97;5101556;28;20027;-78
2021/09/14 08:57:30;;;;;;;11.85;5.20;;;;;;;31.13;23.24;99896.31;5101207;28;20031;-78
2021/09/14 08:59:57;;;;;;;11.77;5.95;;;;;;;30.96;22.96;99885.06;5084301;28;20023;-78
2021/09/14 09:02:22;;;;;;;10.68;5.82;;;;;;;31.20;23.42;99904.19;5101435;28;20040;-78
2021/09/14 09:04:54;;;;;;;8.48;5.50;;;;;;;31.33;23.08;99899.94;5101340;28;20054;-78
2021/09/14 09:07:33;;;;;;;9.70;6.00;;;;;;;31.07;23.43;99889.28;5101739;28;20296;-78
2021/09/14 09:10:16;;;;;;;16.30;6.35;;;;;;;31.15;22.79;99887.84;5081259;28;20065;-78
2021/09/14 09:12:49;;;;;;;16.63;6.25;;;;;;;31.22;23.03;99891.06;5099267;28;20119;-78
2021/09/14 09:15:33;;;;;;;12.23;6.80;;;;;;;31.50;22.70;99886.53;5099994;28;20403;-78
2021/09/14 09:18:06;;;;;;;11.02;5.93;;;;;;;31.63;21.96;99890.47;5099769;28;20040;-78
2021/09/14 09:20:42;;;;;;;19.70;6.80;;;;;;;31.72;22.18;99892.25;5100299;28;20034;-78
2021/09/14 09:23:23;;;;;;;12.63;5.93;;;;;;;31.70;22.09;99893.66;5098968;28;20325;-78
2021/09/14 09:25:49;;;;;;;14.23;7.15;;;;;;;31.63;23.07;99885.78;5098905;28;20081;-78
2021/09/14 09:28:19;;;;;;;14.10;6.38;;;;;;;31.57;23.25;99877.97;5097955;28;20035;-78
2021/09/14 09:30:59;;;;;;;18.80;7.65;;;;;;;31.59;23.46;99889.44;5099974;28;20051;-78
2021/09/14 09:33:29;;;;;;;15.45;6.55;;;;;;;31.47;23.80;99878.94;5098482;28;20073;-79
2021/09/14 09:36:03;;;;;;;16.63;6.57;;;;;;;31.36;23.34;99870.06;5101481;28;20244;-78
2021/09/14 09:38:29;;;;;;;;;;;;;;;31.30;23.60;99889.59;5103938;28;20046;-78
2021/09/14 09:40:55;;;;;;;8.88;5.68;;;;;;;30.51;24.54;99886.41;5082789;28;19920;-78
2021/09/14 09:43:29;;;;;;;14.30;6.07;;;;;;;30.14;25.21;99868.72;5100942;28;20333;-78
2021/09/14 09:46:05;;;;;;;9.65;5.82;;;;;;;29.94;25.82;99874.34;5100688;28;20081;-78
2021/09/14 09:48:31;;;;;;;11.32;5.85;;;;;;;29.79;26.45;99874.47;5101770;28;20035;-78
2021/09/14 09:50:56;;;;;;;14.55;5.50;;;;;;;29.76;26.07;99866.84;5100506;28;20032;-79
2021/09/14 09:53:23;;;;;;;13.68;6.10;;;;;;;29.64;26.69;99847.31;5100786;28;20095;-78
2021/09/14 09:55:49;;;;;;;15.13;6.47;;;;;;;29.82;26.43;99866.53;5100548;28;20024;-77
2021/09/14 09:58:15;;;;;;;9.25;5.20;;;;;;;29.59;26.69;99861.81;5082533;28;20020;-77
2021/09/14 10:00:41;;;;;;;10.55;5.80;;;;;;;29.29;26.68;99879.16;5082828;28;20020;-77
2021/09/14 10:03:17;;;;;;;9.82;5.80;;;;;;;29.21;27.25;99869.66;5100406;28;20186;-77
2021/09/14 10:05:47;;;;;;;11.73;6.05;;;;;;;29.17;26.91;99871.31;5083728;28;20229;-78
2021/09/14 10:08:19;;;;;;;9.73;5.63;;;;;;;29.24;26.93;99860.09;5100933;28;20054;-77
2021/09/14 10:10:53;;;;;;;9.65;5.50;;;;;;;29.24;27.26;99871.00;5082778;28;20036;-78
2021/09/14 10:13:32;;;;;;;12.95;6.47;;;;;;;29.09;27.12;99857.44;5101151;28;20341;-77
2021/09/14 10:15:57;;;;;;;10.70;6.25;;;;;;;29.16;27.03;99864.25;5100085;28;20036;-76
2021/09/14 10:18:33;;;;;;;10.43;5.35;;;;;;;29.37;26.69;99861.38;5100525;28;20035;-77
2021/09/14 10:21:00;;;;;;;10.00;5.60;;;;;;;29.24;26.69;99851.94;5100336;28;20095;-76
2021/09/14 10:23:34;;;;;;;12.65;5.22;;;;;;;29.26;27.12;99843.47;5082733;28;20031;-77
2021/09/14 10:26:06;;;;;;;10.32;5.60;;;;;;;29.45;27.60;99852.63;5100311;28;20043;-76
2021/09/14 10:28:46;;;;;;;9.25;5.97;;;;;;;29.55;26.98;99837.00;5100922;28;20092;-77
2021/09/14 10:31:25;;;;;;;11.35;5.80;;;;;;;29.58;27.44;99824.69;5100411;28;20055;-76
2021/09/14 10:34:10;;;;;;;8.75;5.55;;;;;;;29.72;27.17;99833.88;5082116;28;20028;-76
2021/09/14 10:36:37;;;;;;;13.10;5.53;;;;;;;29.64;27.36;99829.03;5100430;28;20226;-76
2021/09/14 10:39:07;;;;;;;10.10;5.95;;;;;;;29.57;28.09;99823.06;5102349;28;20051;-76
2021/09/14 10:41:41;;;;;;;15.73;6.00;;;;;;;29.57;27.56;99836.72;5085787;28;20067;-75
2021/09/14 10:44:10;;;;;;;11.57;5.60;;;;;;;29.75;27.48;99838.75;5104189;28;20043;-76
2021/09/14 10:46:37;;;;;;;9.70;6.47;;;;;;;29.56;28.04;99816.00;5106095;28;20095;-76
2021/09/14 10:49:15;;;;;;;11.68;6.75;;;;;;;29.51;28.24;99822.31;5103684;28;20020;-79
2021/09/14 10:51:41;;;;;;;11.82;6.00;;;;;;;29.55;28.08;99828.00;5085635;28;20028;-78
2021/09/14 10:54:07;;;;;;;9.63;5.90;;;;;;;29.38;27.37;99814.72;5103929;28;20107;-82
2021/09/14 10:56:32;;;;;;;9.10;5.78;;;;;;;29.52;28.00;99810.28;5085517;28;20105;-79
2021/09/14 10:58:57;;;;;;;16.83;6.28;;;;;;;29.71;28.68;99813.13;5103630;28;20024;-78
2021/09/14 11:01:24;;;;;;;13.27;5.65;;;;;;;30.02;27.34;99818.31;5103593;28;20329;-80
2021/09/14 11:04:07;;;;;;;9.40;5.88;;;;;;;29.98;27.21;99817.25;5103698;28;20065;-78
2021/09/14 11:06:33;;;;;;;10.68;5.60;;;;;;;29.95;26.28;99815.91;5103657;28;20032;-82
2021/09/14 11:09:04;;;;;;;10.80;5.72;;;;;;;29.65;26.19;99808.81;5103916;28;20055;-78
2021/09/14 11:11:30;;;;;;;11.20;5.55;;;;;;;29.80;26.13;99816.06;5085489;28;20061;-78
2021/09/14 11:13:56;;;;;;;12.82;6.13;;;;;;;29.67;27.29;99801.16;5085587;28;20232;-78
2021/09/14 11:16:22;;;;;;;9.65;5.85;;;;;;;29.44;26.84;99783.63;5089882;28;20111;-78
2021/09/14 11:18:48;;;;;;;15.50;6.07;;;;;;;29.70;26.50;99819.69;5094429;28;20028;-78
2021/09/14 11:21:18;;;;;;;11.57;5.75;;;;;;;29.60;26.39;99811.59;5104905;28;20040;-78
2021/09/14 11:23:47;;;;;;;12.75;5.70;;;;;;;29.42;26.55;99801.34;5105358;28;20091;-81
2021/09/14 11:26:14;;;;;;;9.20;5.85;;;;;;;29.49;27.66;99810.03;5103936;28;20313;-80
2021/09/14 11:28:41;;;;;;;14.20;6.07;;;;;;;29.44;27.01;99801.91;5103147;28;20225;-79
2021/09/14 11:31:12;;;;;;;13.80;6.25;;;;;;;29.33;26.46;99806.59;5085027;28;20166;-80
2021/09/14 11:33:42;;;;;;;13.70;6.35;;;;;;;29.42;26.96;99801.34;5085168;28;20025;-80
2021/09/14 11:36:08;;;;;;;13.38;5.55;;;;;;;29.40;26.97;99809.00;5103134;28;20024;-80
2021/09/14 11:38:35;;;;;;;12.35;6.47;;;;;;;29.70;27.20;99810.69;5103087;28;20379;-80
2021/09/14 11:41:02;;;;;;;10.75;5.72;;;;;;;29.83;26.41;99804.56;5084888;28;20027;-79
2021/09/14 11:43:34;;;;;;;11.27;5.60;;;;;;;29.67;26.72;99801.16;5101879;28;20047;-79
2021/09/14 11:46:19;;;;;;;11.55;5.97;;;;;;;29.63;27.61;99799.28;5101065;28;20036;-80
2021/09/14 11:49:05;;;;;;;11.40;5.35;;;;;;;29.63;26.30;99799.28;5101726;28;20133;-79
2021/09/14 11:51:38;;;;;;;10.05;5.38;;;;;;;29.40;27.29;99781.72;5099374;28;20236;-78
2021/09/14 11:54:07;;;;;;;12.98;6.22;;;;;;;29.28;27.31;99773.09;5102431;28;20032;-79
2021/09/14 11:56:32;;;;;;;10.63;6.03;;;;;;;29.48;26.70;99792.88;5083366;28;20047;-78
2021/09/14 11:58:58;;;;;;;11.38;5.88;;;;;;;29.39;27.83;99777.34;5101691;28;20040;-79
2021/09/14 12:01:30;;;;;;;12.60;6.00;;;;;;;29.45;26.68;99787.97;5099877;28;20032;-78
2021/09/14 12:03:56;;;;;;;10.77;6.03;;;;;;;29.26;26.66;99769.81;5083260;28;20028;-79
2021/09/14 12:06:32;;;;;;;8.82;5.18;;;;;;;29.34;26.81;99788.31;5101391;28;20032;-78
2021/09/14 12:09:00;;;;;;;13.68;5.70;;;;;;;29.21;26.59;99766.03;5095049;28;20023;-79
2021/09/14 12:11:33;;;;;;;10.55;5.72;;;;;;;29.27;26.79;99788.63;5100138;28;20039;-79
2021/09/14 12:14:09;;;;;;;12.27;5.43;;;;;;;29.02;26.85;99775.16;5081844;28;20028;-79
2021/09/14 12:16:42;;;;;;;8.98;5.38;;;;;;;29.28;27.05;99771.19;5080775;28;20040;-79
2021/09/14 12:19:10;;;;;;;11.20;5.50;;;;;;;29.33;26.61;99779.31;5101214;28;20039;-79
2021/09/14 12:21:35;;;;;;;12.88;5.70;;;;;;;29.16;27.20;99770.72;5099650;28;20195;-79